Station Historical Data
Daily Summary for January 8, 2017 Units:  English    Metric   Both
« Previous Day
Next Day »
Daily Weekly Monthly Yearly Custom
  High: Low: Average:
Temperature: 53.5 °F 49.4 °F 51.7 °F
Dew Point: 53.0 °F 48.6 °F 50.9 °F
Humidity: 99 % 96 % 97 %
Wind Speed: 33.0 mph 0.0 mph 14.5 mph
Wind Gust: 44.0 mph - -
Wind:- - South
Pressure: 30.10 in 29.84 in -
Precipitation: 0.00 in    
Historical Graphs
 
 
Tabular Data for January 8, 2017
Time Temperature Dew Point Pressure Wind Wind Speed Wind Gust Humidity Rainfall Rate (Hourly) solar
00:03 50.9 °F 50.1 °F 30.10 in South 7.0 mph 18.0 mph 97 % 0.16 in 0.00 W/m2
00:08 50.9 °F 50.1 °F 30.10 in SSE 11.0 mph 18.0 mph 97 % 0.15 in 0.00 W/m2
00:13 50.9 °F 50.1 °F 30.10 in South 7.0 mph 16.0 mph 97 % 0.17 in 0.00 W/m2
00:18 51.0 °F 50.2 °F 30.10 in SSE 10.0 mph 17.0 mph 97 % 0.14 in 0.00 W/m2
00:23 51.0 °F 50.2 °F 30.10 in South 12.0 mph 20.0 mph 97 % 0.16 in 0.00 W/m2
00:28 51.0 °F 50.2 °F 30.10 in SSE 10.0 mph 17.0 mph 97 % 0.26 in 0.00 W/m2
00:34 51.0 °F 50.2 °F 30.10 in SSE 9.0 mph 18.0 mph 97 % 0.24 in 0.00 W/m2
00:39 51.0 °F 50.2 °F 30.10 in SSE 10.0 mph 16.0 mph 97 % 0.18 in 0.00 W/m2
00:44 50.9 °F 50.1 °F 30.09 in SSE 9.0 mph 19.0 mph 97 % 0.12 in 0.00 W/m2
00:49 50.9 °F 50.1 °F 30.09 in SSE 13.0 mph 22.0 mph 97 % 0.09 in 0.00 W/m2
00:54 50.9 °F 50.1 °F 30.09 in SSE 16.0 mph 20.0 mph 97 % 0.14 in 0.00 W/m2
00:59 50.9 °F 50.1 °F 30.09 in South 11.0 mph 16.0 mph 97 % 0.13 in 0.00 W/m2
01:04 50.9 °F 50.1 °F 30.09 in SSE 13.0 mph 21.0 mph 97 % 0.12 in 0.00 W/m2
01:09 50.8 °F 50.0 °F 30.09 in SSE 11.0 mph 14.0 mph 97 % 0.06 in 0.00 W/m2
01:14 50.8 °F 50.0 °F 30.08 in SSE 12.0 mph 17.0 mph 97 % 0.06 in 0.00 W/m2
01:19 50.8 °F 50.0 °F 30.08 in SSE 9.0 mph 21.0 mph 97 % 0.13 in 0.00 W/m2
01:24 50.8 °F 50.0 °F 30.08 in SSE 6.0 mph 15.0 mph 97 % 0.06 in 0.00 W/m2
01:29 50.7 °F 49.9 °F 30.08 in SSE 14.0 mph 16.0 mph 97 % 0.06 in 0.00 W/m2
01:34 50.7 °F 49.9 °F 30.08 in South 7.0 mph 18.0 mph 97 % 0.07 in 0.00 W/m2
01:39 50.7 °F 49.9 °F 30.08 in SSE 5.0 mph 15.0 mph 97 % 0.07 in 0.00 W/m2
01:44 50.6 °F 49.8 °F 30.08 in SSE 7.0 mph 21.0 mph 97 % 0.07 in 0.00 W/m2
01:49 50.6 °F 49.8 °F 30.08 in South 5.0 mph 17.0 mph 97 % 0.13 in 0.00 W/m2
01:54 50.6 °F 49.8 °F 30.09 in SSE 7.0 mph 13.0 mph 97 % 0.10 in 0.00 W/m2
01:59 50.6 °F 49.8 °F 30.08 in South 6.0 mph 13.0 mph 97 % 0.20 in 0.00 W/m2
02:04 50.5 °F 49.7 °F 30.08 in SE 14.0 mph 18.0 mph 97 % 0.28 in 0.00 W/m2
02:09 50.5 °F 49.7 °F 30.08 in SSE 9.0 mph 17.0 mph 97 % 0.30 in 0.00 W/m2
02:14 50.5 °F 49.7 °F 30.07 in SSE 6.0 mph 19.0 mph 97 % 0.18 in 0.00 W/m2
02:19 50.5 °F 49.7 °F 30.06 in SE 10.0 mph 13.0 mph 97 % 0.19 in 0.00 W/m2
02:24 50.5 °F 49.7 °F 30.06 in SSE 6.0 mph 18.0 mph 97 % 0.10 in 0.00 W/m2
02:29 50.4 °F 49.6 °F 30.06 in SE 11.0 mph 18.0 mph 97 % 0.25 in 0.00 W/m2
02:34 50.4 °F 49.6 °F 30.06 in South 2.0 mph 12.0 mph 97 % 0.27 in 0.00 W/m2
02:39 50.3 °F 49.5 °F 30.06 in SSE 8.0 mph 17.0 mph 97 % 0.34 in 0.00 W/m2
02:44 50.3 °F 49.5 °F 30.05 in SE 15.0 mph 22.0 mph 97 % 0.19 in 0.00 W/m2
02:49 50.2 °F 49.4 °F 30.05 in SE 15.0 mph 22.0 mph 97 % 0.14 in 0.00 W/m2
02:54 50.1 °F 49.3 °F 30.04 in SSE 11.0 mph 20.0 mph 97 % 0.20 in 0.00 W/m2
02:59 50.0 °F 49.2 °F 30.04 in SSE 5.0 mph 18.0 mph 97 % 0.14 in 0.00 W/m2
03:04 50.0 °F 48.9 °F 30.03 in SE 14.0 mph 21.0 mph 96 % 0.15 in 0.00 W/m2
03:09 49.9 °F 48.8 °F 30.03 in SE 21.0 mph 26.0 mph 96 % 0.16 in 0.00 W/m2
03:14 49.9 °F 48.8 °F 30.03 in SSE 12.0 mph 20.0 mph 96 % 0.18 in 0.00 W/m2
03:19 49.8 °F 48.7 °F 30.02 in SE 8.0 mph 23.0 mph 96 % 0.15 in 0.00 W/m2
03:24 49.8 °F 48.7 °F 30.02 in SE 4.0 mph 20.0 mph 96 % 0.13 in 0.00 W/m2
03:29 49.8 °F 48.7 °F 30.02 in SE 8.0 mph 22.0 mph 96 % 0.13 in 0.00 W/m2
03:34 49.9 °F 49.1 °F 30.02 in SSE 8.0 mph 23.0 mph 97 % 0.07 in 0.00 W/m2
03:39 50.0 °F 49.2 °F 30.02 in SSE 22.0 mph 23.0 mph 97 % 0.07 in 0.00 W/m2
03:44 50.1 °F 49.3 °F 30.01 in SSE 7.0 mph 22.0 mph 97 % 0.09 in 0.00 W/m2
03:49 50.2 °F 49.4 °F 30.00 in ESE 13.0 mph 19.0 mph 97 % 0.18 in 0.00 W/m2
03:54 50.3 °F 49.5 °F 30.00 in SSE 17.0 mph 20.0 mph 97 % 0.12 in 0.00 W/m2
03:59 50.3 °F 49.5 °F 30.00 in SSE 8.0 mph 19.0 mph 97 % 0.09 in 0.00 W/m2
04:05 50.4 °F 49.6 °F 29.98 in SE 15.0 mph 25.0 mph 97 % 0.15 in 0.00 W/m2
04:10 50.4 °F 49.6 °F 29.98 in SE 20.0 mph 34.0 mph 97 % 0.08 in 0.00 W/m2
04:15 50.5 °F 49.7 °F 29.99 in SSE 15.0 mph 19.0 mph 97 % 0.08 in 0.00 W/m2
04:20 50.5 °F 49.7 °F 29.99 in SSE 8.0 mph 20.0 mph 97 % 0.08 in 0.00 W/m2
04:25 50.6 °F 49.8 °F 29.99 in SSE 14.0 mph 20.0 mph 97 % 0.06 in 0.00 W/m2
04:30 50.6 °F 49.8 °F 29.98 in South 14.0 mph 24.0 mph 97 % 0.05 in 0.00 W/m2
04:35 50.7 °F 49.9 °F 29.98 in South 12.0 mph 27.0 mph 97 % 0.09 in 0.00 W/m2
04:40 50.8 °F 50.0 °F 29.98 in SE 9.0 mph 22.0 mph 97 % 0.09 in 0.00 W/m2
04:45 50.9 °F 50.1 °F 29.97 in South 4.0 mph 19.0 mph 97 % 0.07 in 0.00 W/m2
04:50 50.9 °F 50.1 °F 29.98 in SSE 9.0 mph 20.0 mph 97 % 0.24 in 0.00 W/m2
04:55 51.0 °F 50.2 °F 29.97 in South 16.0 mph 22.0 mph 97 % 0.38 in 0.00 W/m2
05:00 51.0 °F 50.2 °F 29.96 in SE 14.0 mph 17.0 mph 97 % 0.33 in 0.00 W/m2
05:05 51.0 °F 50.2 °F 29.95 in SSE 10.0 mph 23.0 mph 97 % 0.58 in 0.00 W/m2
05:10 51.1 °F 50.3 °F 29.93 in SE 8.0 mph 21.0 mph 97 % 0.58 in 0.00 W/m2
05:19 51.1 °F 50.3 °F 29.94 in South 19.0 mph 24.0 mph 97 % 0.52 in 0.00 W/m2
05:26 51.2 °F 50.4 °F 29.93 in South 7.0 mph 10.0 mph 97 % 0.16 in 0.00 W/m2
05:35 51.2 °F 50.4 °F 29.93 in SSE 9.0 mph 27.0 mph 97 % 0.13 in 0.00 W/m2
05:42 51.3 °F 50.5 °F 29.93 in SSW 10.0 mph 22.0 mph 97 % 0.05 in 0.00 W/m2
06:29 52.2 °F 51.7 °F 29.93 in South 28.0 mph 31.0 mph 98 % 0.00 in 0.00 W/m2
06:34 52.3 °F 51.8 °F 29.93 in SSW 12.0 mph 33.0 mph 98 % 0.00 in 0.00 W/m2
06:39 52.3 °F 51.8 °F 29.92 in SSE 12.0 mph 26.0 mph 98 % 0.00 in 0.00 W/m2
06:44 52.3 °F 51.8 °F 29.92 in South 18.0 mph 33.0 mph 98 % 0.00 in 0.00 W/m2
06:50 52.4 °F 52.1 °F 29.92 in SE 20.0 mph 30.0 mph 99 % 0.00 in 0.00 W/m2
06:55 52.4 °F 51.8 °F 29.92 in SE 12.0 mph 26.0 mph 98 % 0.00 in 0.00 W/m2
07:00 52.4 °F 51.8 °F 29.91 in SSE 21.0 mph 31.0 mph 98 % 0.00 in 0.00 W/m2
07:05 52.4 °F 51.8 °F 29.91 in SE 7.0 mph 27.0 mph 98 % 0.00 in 0.00 W/m2
07:10 52.4 °F 51.8 °F 29.91 in SSE 8.0 mph 31.0 mph 98 % 0.00 in 0.00 W/m2
07:15 52.4 °F 51.8 °F 29.91 in SSE 17.0 mph 26.0 mph 98 % 0.00 in 0.00 W/m2
07:20 52.4 °F 51.8 °F 29.92 in SE 6.0 mph 33.0 mph 98 % 0.00 in 0.00 W/m2
07:25 52.4 °F 51.8 °F 29.93 in SSW 15.0 mph 32.0 mph 98 % 0.00 in 0.00 W/m2
07:30 52.4 °F 51.8 °F 29.92 in South 18.0 mph 29.0 mph 98 % 0.00 in 0.00 W/m2
07:35 52.4 °F 51.8 °F 29.92 in SE 14.0 mph 32.0 mph 98 % 0.00 in 0.00 W/m2
07:40 52.5 °F 52.2 °F 29.93 in South 11.0 mph 28.0 mph 99 % 0.00 in 0.00 W/m2
07:45 52.6 °F 52.3 °F 29.93 in SSE 31.0 mph 31.0 mph 99 % 0.00 in 0.00 W/m2
07:50 52.6 °F 52.3 °F 29.93 in SSE 10.0 mph 36.0 mph 99 % 0.10 in 0.00 W/m2
07:55 52.7 °F 52.2 °F 29.93 in South 30.0 mph 30.0 mph 98 % 0.16 in 0.00 W/m2
08:00 52.7 °F 52.2 °F 29.95 in South 21.0 mph 28.0 mph 98 % 0.13 in 0.00 W/m2
08:05 52.7 °F 52.2 °F 29.94 in South 10.0 mph 25.0 mph 98 % 0.66 in 0.00 W/m2
08:10 52.7 °F 52.2 °F 29.94 in South 11.0 mph 29.0 mph 98 % 0.20 in 0.00 W/m2
08:15 52.7 °F 52.2 °F 29.94 in SSE 18.0 mph 26.0 mph 98 % 0.27 in 0.00 W/m2
08:20 52.8 °F 52.2 °F 29.95 in SSE 11.0 mph 22.0 mph 98 % 0.10 in 0.00 W/m2
08:25 52.8 °F 52.2 °F 29.95 in SSE 25.0 mph 25.0 mph 98 % 0.10 in 5.00 W/m2
08:30 52.9 °F 52.3 °F 29.95 in South 18.0 mph 29.0 mph 98 % 0.07 in 7.00 W/m2
08:35 53.0 °F 52.5 °F 29.95 in South 9.0 mph 31.0 mph 98 % 0.07 in 7.00 W/m2
08:40 53.1 °F 52.5 °F 29.95 in SSE 4.0 mph 27.0 mph 98 % 0.06 in 5.00 W/m2
08:45 53.1 °F 52.5 °F 29.96 in SSW 18.0 mph 22.0 mph 98 % 0.04 in 5.00 W/m2
08:50 53.2 °F 52.7 °F 29.95 in South 15.0 mph 29.0 mph 98 % 0.04 in 5.00 W/m2
08:55 53.2 °F 52.7 °F 29.96 in SSW 17.0 mph 27.0 mph 98 % 0.04 in 7.00 W/m2
09:00 53.3 °F 52.8 °F 29.95 in South 28.0 mph 31.0 mph 98 % 0.04 in 5.00 W/m2
09:05 53.3 °F 52.8 °F 29.94 in SSE 16.0 mph 27.0 mph 98 % 0.00 in 11.00 W/m2
09:10 53.4 °F 52.8 °F 29.94 in SSE 16.0 mph 27.0 mph 98 % 0.00 in 9.00 W/m2
09:15 53.5 °F 53.0 °F 29.94 in SSE 21.0 mph 27.0 mph 98 % 0.00 in 11.00 W/m2
09:20 53.5 °F 53.0 °F 29.94 in ESE 15.0 mph 28.0 mph 98 % 0.00 in 14.00 W/m2
09:25 53.5 °F 53.0 °F 29.93 in South 18.0 mph 34.0 mph 98 % 0.00 in 14.00 W/m2
09:30 53.5 °F 53.0 °F 29.93 in South 9.0 mph 24.0 mph 98 % 0.00 in 9.00 W/m2
09:35 53.5 °F 53.0 °F 29.93 in SSE 15.0 mph 31.0 mph 98 % 0.00 in 12.00 W/m2
09:40 53.5 °F 53.0 °F 29.93 in SSE 9.0 mph 28.0 mph 98 % 0.00 in 12.00 W/m2
09:45 53.5 °F 53.0 °F 29.92 in South 22.0 mph 31.0 mph 98 % 0.00 in 16.00 W/m2
09:50 53.5 °F 53.0 °F 29.92 in South 19.0 mph 26.0 mph 98 % 0.00 in 12.00 W/m2
09:55 53.5 °F 53.0 °F 29.93 in SSE 11.0 mph 26.0 mph 98 % 0.00 in 9.00 W/m2
10:00 53.5 °F 53.0 °F 29.94 in South 32.0 mph 32.0 mph 98 % 0.12 in 7.00 W/m2
10:05 53.5 °F 53.0 °F 29.93 in ESE 16.0 mph 44.0 mph 98 % 0.18 in 14.00 W/m2
10:10 53.5 °F 53.0 °F 29.93 in SSE 23.0 mph 32.0 mph 98 % 0.07 in 14.00 W/m2
10:15 53.4 °F 52.6 °F 29.93 in SSE 15.0 mph 33.0 mph 97 % 0.05 in 16.00 W/m2
10:20 53.4 °F 52.6 °F 29.93 in SSE 21.0 mph 31.0 mph 97 % 0.04 in 14.00 W/m2
10:25 53.3 °F 52.5 °F 29.94 in South 17.0 mph 29.0 mph 97 % 0.04 in 12.00 W/m2
10:30 53.3 °F 52.5 °F 29.93 in South 21.0 mph 31.0 mph 97 % 0.07 in 11.00 W/m2
10:35 53.2 °F 52.4 °F 29.93 in SW 11.0 mph 33.0 mph 97 % 0.60 in 16.00 W/m2
10:40 53.2 °F 52.4 °F 29.93 in South 8.0 mph 36.0 mph 97 % 0.26 in 7.00 W/m2
10:45 53.2 °F 52.4 °F 29.92 in SE 21.0 mph 27.0 mph 97 % 0.13 in 12.00 W/m2
10:50 53.2 °F 52.4 °F 29.92 in South 18.0 mph 40.0 mph 97 % 0.09 in 14.00 W/m2
10:55 53.2 °F 52.4 °F 29.92 in South 30.0 mph 39.0 mph 97 % 0.25 in 12.00 W/m2
11:00 53.2 °F 52.4 °F 29.92 in South 9.0 mph 39.0 mph 97 % 0.14 in 12.00 W/m2
11:05 53.3 °F 52.5 °F 29.92 in SW 12.0 mph 34.0 mph 97 % 0.13 in 18.00 W/m2
11:10 53.3 °F 52.5 °F 29.92 in SSE 29.0 mph 32.0 mph 97 % 0.06 in 16.00 W/m2
11:16 53.3 °F 52.5 °F 29.92 in SSE 21.0 mph 32.0 mph 97 % 0.21 in 19.00 W/m2
11:20 53.3 °F 52.5 °F 29.92 in WSW 8.0 mph 36.0 mph 97 % 0.21 in 11.00 W/m2
11:26 53.3 °F 52.5 °F 29.92 in SSW 8.0 mph 23.0 mph 97 % 0.10 in 7.00 W/m2
11:31 53.3 °F 52.5 °F 29.92 in South 9.0 mph 23.0 mph 97 % 0.46 in 9.00 W/m2
11:36 53.3 °F 52.5 °F 29.92 in SSW 21.0 mph 22.0 mph 97 % 0.63 in 11.00 W/m2
11:41 53.2 °F 52.4 °F 29.92 in South 12.0 mph 27.0 mph 97 % 0.12 in 14.00 W/m2
11:46 53.2 °F 52.4 °F 29.92 in South 19.0 mph 31.0 mph 97 % 0.40 in 12.00 W/m2
11:51 53.2 °F 52.4 °F 29.93 in SW 8.0 mph 29.0 mph 97 % 0.25 in 14.00 W/m2
11:56 53.2 °F 52.4 °F 29.93 in South 27.0 mph 35.0 mph 97 % 0.22 in 14.00 W/m2
12:01 53.2 °F 52.4 °F 29.93 in SSW 17.0 mph 33.0 mph 97 % 0.48 in 9.00 W/m2
12:06 53.1 °F 52.3 °F 29.93 in WSW 22.0 mph 30.0 mph 97 % 0.70 in 14.00 W/m2
12:11 53.1 °F 52.3 °F 29.93 in SSW 24.0 mph 33.0 mph 97 % 0.30 in 19.00 W/m2
12:16 53.0 °F 52.2 °F 29.92 in South 31.0 mph 35.0 mph 97 % 0.15 in 12.00 W/m2
12:21 53.0 °F 52.2 °F 29.92 in South 33.0 mph 37.0 mph 97 % 0.14 in 16.00 W/m2
12:26 52.9 °F 52.1 °F 29.92 in South 33.0 mph 42.0 mph 97 % 0.18 in 11.00 W/m2
12:31 52.9 °F 52.1 °F 29.92 in SSW 21.0 mph 34.0 mph 97 % 0.12 in 9.00 W/m2
12:36 52.8 °F 52.0 °F 29.91 in South 20.0 mph 37.0 mph 97 % 0.19 in 11.00 W/m2
12:41 52.7 °F 51.9 °F 29.90 in SE 17.0 mph 39.0 mph 97 % 0.24 in 11.00 W/m2
12:46 52.6 °F 51.8 °F 29.88 in SSE 19.0 mph 41.0 mph 97 % 0.16 in 16.00 W/m2
12:51 52.6 °F 51.8 °F 29.88 in South 18.0 mph 36.0 mph 97 % 0.13 in 11.00 W/m2
12:56 52.5 °F 51.7 °F 29.88 in SSE 12.0 mph 35.0 mph 97 % 0.15 in 9.00 W/m2
13:01 52.4 °F 51.3 °F 29.88 in SSW 24.0 mph 38.0 mph 96 % 0.13 in 11.00 W/m2
13:06 52.4 °F 51.3 °F 29.88 in SSW 20.0 mph 39.0 mph 96 % 0.13 in 9.00 W/m2
13:11 52.3 °F 51.2 °F 29.88 in South 12.0 mph 33.0 mph 96 % 0.08 in 9.00 W/m2
13:16 52.3 °F 51.2 °F 29.87 in SW 15.0 mph 38.0 mph 96 % 0.09 in 12.00 W/m2
13:21 52.3 °F 51.2 °F 29.87 in South 26.0 mph 33.0 mph 96 % 0.09 in 9.00 W/m2
13:26 52.3 °F 51.2 °F 29.87 in SSE 24.0 mph 32.0 mph 96 % 0.05 in 12.00 W/m2
13:31 52.3 °F 51.2 °F 29.87 in SSE 9.0 mph 38.0 mph 96 % 0.04 in 14.00 W/m2
13:36 52.3 °F 51.5 °F 29.87 in SSW 21.0 mph 33.0 mph 97 % 0.00 in 12.00 W/m2
13:41 52.2 °F 51.4 °F 29.86 in SSE 22.0 mph 32.0 mph 97 % 0.00 in 14.00 W/m2
13:46 52.2 °F 51.4 °F 29.87 in SSE 15.0 mph 38.0 mph 97 % 0.00 in 11.00 W/m2
13:51 52.1 °F 51.3 °F 29.85 in SSE 29.0 mph 30.0 mph 97 % 0.05 in 23.00 W/m2
13:56 52.0 °F 51.2 °F 29.86 in South 21.0 mph 39.0 mph 97 % 0.08 in 21.00 W/m2
14:01 52.0 °F 51.2 °F 29.85 in South 13.0 mph 33.0 mph 97 % 0.08 in 12.00 W/m2
14:06 51.9 °F 51.1 °F 29.85 in SSW 18.0 mph 32.0 mph 97 % 0.06 in 12.00 W/m2
14:11 51.9 °F 51.1 °F 29.85 in SE 15.0 mph 37.0 mph 97 % 0.20 in 12.00 W/m2
14:16 51.9 °F 51.1 °F 29.85 in South 28.0 mph 31.0 mph 97 % 0.17 in 16.00 W/m2
14:21 51.8 °F 51.0 °F 29.85 in South 15.0 mph 34.0 mph 97 % 0.27 in 11.00 W/m2
14:26 51.7 °F 50.6 °F 29.85 in SSE 25.0 mph 31.0 mph 96 % 0.14 in 14.00 W/m2
14:31 51.7 °F 50.6 °F 29.85 in South 22.0 mph 27.0 mph 96 % 0.14 in 12.00 W/m2
14:36 51.6 °F 50.5 °F 29.85 in South 21.0 mph 38.0 mph 96 % 0.19 in 12.00 W/m2
14:41 51.5 °F 50.4 °F 29.85 in SSE 12.0 mph 15.0 mph 96 % 0.17 in 9.00 W/m2
14:46 51.5 °F 50.4 °F 29.85 in SSE 17.0 mph 27.0 mph 96 % 0.22 in 11.00 W/m2
14:51 51.4 °F 50.3 °F 29.85 in SSE 31.0 mph 34.0 mph 96 % 0.15 in 12.00 W/m2
14:56 51.4 °F 50.3 °F 29.86 in SW 19.0 mph 42.0 mph 96 % 0.13 in 18.00 W/m2
15:01 51.4 °F 50.3 °F 29.86 in SSW 10.0 mph 10.0 mph 96 % 0.14 in 11.00 W/m2
15:06 51.4 °F 50.3 °F 29.85 in South 19.0 mph 34.0 mph 96 % 0.14 in 19.00 W/m2
15:11 51.4 °F 50.3 °F 29.85 in South 31.0 mph 31.0 mph 96 % 0.07 in 14.00 W/m2
15:16 51.4 °F 50.3 °F 29.85 in SSE 26.0 mph 31.0 mph 96 % 0.07 in 12.00 W/m2
15:21 51.5 °F 50.7 °F 29.85 in South 24.0 mph 32.0 mph 97 % 0.16 in 14.00 W/m2
15:26 51.5 °F 50.4 °F 29.85 in SSE 7.0 mph 29.0 mph 96 % 0.13 in 9.00 W/m2
15:31 51.5 °F 50.4 °F 29.86 in South 22.0 mph 25.0 mph 96 % 0.13 in 7.00 W/m2
15:36 51.6 °F 50.5 °F 29.85 in South 18.0 mph 34.0 mph 96 % 0.07 in 9.00 W/m2
15:41 51.6 °F 50.5 °F 29.86 in SSE 9.0 mph 24.0 mph 96 % 0.25 in 7.00 W/m2
15:46 51.6 °F 50.5 °F 29.86 in SSE 19.0 mph 34.0 mph 96 % 0.21 in 5.00 W/m2
15:51 51.7 °F 50.6 °F 29.85 in SSW 10.0 mph 30.0 mph 96 % 0.17 in 9.00 W/m2
15:56 51.7 °F 50.6 °F 29.86 in SSW 12.0 mph 24.0 mph 96 % 0.17 in 5.00 W/m2
16:01 51.7 °F 50.9 °F 29.86 in SW 16.0 mph 33.0 mph 97 % 0.10 in 5.00 W/m2
16:06 51.7 °F 50.9 °F 29.86 in SSW 15.0 mph 36.0 mph 97 % 0.13 in 0.00 W/m2
16:11 51.7 °F 50.6 °F 29.86 in South 16.0 mph 27.0 mph 96 % 0.39 in 0.00 W/m2
16:16 51.8 °F 50.7 °F 29.86 in South 6.0 mph 25.0 mph 96 % 0.45 in 0.00 W/m2
16:21 51.7 °F 50.6 °F 29.86 in SSE 9.0 mph 26.0 mph 96 % 0.44 in 0.00 W/m2
16:26 51.7 °F 50.6 °F 29.85 in SW 3.0 mph 29.0 mph 96 % 0.29 in 0.00 W/m2
16:31 51.7 °F 50.6 °F 29.85 in SW 17.0 mph 18.0 mph 96 % 0.43 in 0.00 W/m2
16:36 51.7 °F 50.6 °F 29.85 in SSE 13.0 mph 25.0 mph 96 % 0.42 in 0.00 W/m2
16:41 51.7 °F 50.6 °F 29.86 in South 12.0 mph 24.0 mph 96 % 0.38 in 0.00 W/m2
16:46 51.7 °F 50.6 °F 29.84 in SSW 8.0 mph 29.0 mph 96 % 0.38 in 0.00 W/m2
16:51 51.7 °F 50.6 °F 29.84 in SSW 2.0 mph 25.0 mph 96 % 0.23 in 0.00 W/m2
16:56 51.6 °F 50.5 °F 29.84 in SW 10.0 mph 24.0 mph 96 % 0.48 in 0.00 W/m2
17:01 51.6 °F 50.5 °F 29.85 in South 13.0 mph 24.0 mph 96 % 0.34 in 0.00 W/m2
17:06 51.6 °F 50.5 °F 29.85 in South 33.0 mph 33.0 mph 96 % 0.28 in 0.00 W/m2
17:11 51.6 °F 50.5 °F 29.86 in WSW 8.0 mph 8.0 mph 96 % 0.19 in 0.00 W/m2
17:16 51.6 °F 50.5 °F 29.86 in SSW 10.0 mph 28.0 mph 96 % 0.65 in 0.00 W/m2
17:21 51.6 °F 50.8 °F 29.85 in South 14.0 mph 24.0 mph 97 % 0.28 in 0.00 W/m2
17:26 51.6 °F 50.8 °F 29.86 in SW 7.0 mph 28.0 mph 97 % 0.16 in 0.00 W/m2
17:31 51.6 °F 50.8 °F 29.86 in South 22.0 mph 27.0 mph 97 % 0.15 in 0.00 W/m2
17:36 51.6 °F 50.8 °F 29.87 in SW 12.0 mph 32.0 mph 97 % 0.21 in 0.00 W/m2
17:41 51.6 °F 50.5 °F 29.86 in SSE 21.0 mph 28.0 mph 96 % 0.14 in 0.00 W/m2
17:46 51.5 °F 50.7 °F 29.86 in South 22.0 mph 32.0 mph 97 % 0.13 in 0.00 W/m2
17:51 51.6 °F 50.8 °F 29.88 in South 14.0 mph 14.0 mph 97 % 0.19 in 0.00 W/m2
17:56 51.6 °F 50.8 °F 29.86 in SSW 10.0 mph 29.0 mph 97 % 0.18 in 0.00 W/m2
18:01 51.6 °F 50.8 °F 29.87 in SW 24.0 mph 32.0 mph 97 % 0.13 in 0.00 W/m2
18:06 51.7 °F 50.9 °F 29.87 in SSE 21.0 mph 31.0 mph 97 % 0.14 in 0.00 W/m2
18:11 51.7 °F 50.9 °F 29.86 in SSE 14.0 mph 20.0 mph 97 % 0.07 in 0.00 W/m2
18:16 51.7 °F 50.9 °F 29.87 in SSE 8.0 mph 32.0 mph 97 % 0.07 in 0.00 W/m2
18:21 51.7 °F 50.9 °F 29.87 in South 24.0 mph 37.0 mph 97 % 0.07 in 0.00 W/m2
18:26 51.8 °F 51.0 °F 29.87 in SSW 24.0 mph 32.0 mph 97 % 0.04 in 0.00 W/m2
18:31 51.8 °F 51.0 °F 29.87 in SSW 19.0 mph 27.0 mph 97 % 0.00 in 0.00 W/m2
18:36 51.9 °F 51.1 °F 29.86 in South 10.0 mph 22.0 mph 97 % 0.00 in 0.00 W/m2
18:41 51.9 °F 51.1 °F 29.87 in SW 19.0 mph 29.0 mph 97 % 0.00 in 0.00 W/m2
18:46 52.0 °F 51.2 °F 29.86 in South 17.0 mph 30.0 mph 97 % 0.00 in 0.00 W/m2
18:51 52.0 °F 51.2 °F 29.86 in SSW 6.0 mph 32.0 mph 97 % 0.04 in 0.00 W/m2
18:56 52.1 °F 51.3 °F 29.87 in SSW 11.0 mph 38.0 mph 97 % 0.04 in 0.00 W/m2
19:01 52.1 °F 51.3 °F 29.87 in SSW 23.0 mph 26.0 mph 97 % 0.04 in 0.00 W/m2
19:06 52.1 °F 51.3 °F 29.86 in SSE 15.0 mph 26.0 mph 97 % 0.00 in 0.00 W/m2
19:11 52.1 °F 51.3 °F 29.87 in South 9.0 mph 33.0 mph 97 % 0.00 in 0.00 W/m2
19:16 52.2 °F 51.4 °F 29.87 in SW 6.0 mph 26.0 mph 97 % 0.00 in 0.00 W/m2
19:21 52.2 °F 51.4 °F 29.87 in SW 10.0 mph 36.0 mph 97 % 0.00 in 0.00 W/m2
19:26 52.2 °F 51.4 °F 29.87 in SW 16.0 mph 29.0 mph 97 % 0.00 in 0.00 W/m2
19:31 52.2 °F 51.4 °F 29.87 in SSW 21.0 mph 26.0 mph 97 % 0.26 in 0.00 W/m2
19:36 52.2 °F 51.4 °F 29.87 in South 10.0 mph 25.0 mph 97 % 0.08 in 0.00 W/m2
19:41 52.2 °F 51.4 °F 29.87 in South 10.0 mph 24.0 mph 97 % 0.27 in 0.00 W/m2
19:46 52.2 °F 51.4 °F 29.86 in South 13.0 mph 26.0 mph 97 % 0.15 in 0.00 W/m2
19:51 52.2 °F 51.4 °F 29.87 in SW 10.0 mph 22.0 mph 97 % 0.19 in 0.00 W/m2
19:56 52.2 °F 51.4 °F 29.87 in Calm   17.0 mph 97 % 0.47 in 0.00 W/m2
20:01 52.2 °F 51.4 °F 29.87 in Calm   20.0 mph 97 % 0.82 in 0.00 W/m2
20:06 52.2 °F 51.4 °F 29.87 in South 10.0 mph 25.0 mph 97 % 0.18 in 0.00 W/m2
20:11 51.9 °F 51.1 °F 29.86 in West 22.0 mph 27.0 mph 97 % 0.63 in 0.00 W/m2
20:16 51.8 °F 51.0 °F 29.87 in SSW 14.0 mph 29.0 mph 97 % 0.17 in 0.00 W/m2
20:21 51.7 °F 50.9 °F 29.86 in WSW 12.0 mph 25.0 mph 97 % 0.22 in 0.00 W/m2
20:26 51.6 °F 50.8 °F 29.87 in WSW 16.0 mph 16.0 mph 97 % 0.17 in 0.00 W/m2
20:31 51.7 °F 50.9 °F 29.87 in SSW 7.0 mph 7.0 mph 97 % 0.14 in 0.00 W/m2
20:36 51.7 °F 50.9 °F 29.87 in SW 23.0 mph 23.0 mph 97 % 0.06 in 0.00 W/m2
20:41 51.7 °F 50.9 °F 29.88 in South 7.0 mph 37.0 mph 97 % 0.04 in 0.00 W/m2
20:46 51.6 °F 50.8 °F 29.88 in SW 18.0 mph 32.0 mph 97 % 0.00 in 0.00 W/m2
20:51 51.6 °F 50.8 °F 29.88 in SW 7.0 mph 7.0 mph 97 % 0.00 in 0.00 W/m2
20:56 51.5 °F 50.7 °F 29.89 in SW 22.0 mph 22.0 mph 97 % 0.00 in 0.00 W/m2
21:01 51.4 °F 50.6 °F 29.89 in SSW 2.0 mph 3.0 mph 97 % 0.00 in 0.00 W/m2
21:06 51.4 °F 50.6 °F 29.89 in WSW 14.0 mph 14.0 mph 97 % 0.00 in 0.00 W/m2
21:11 51.3 °F 50.5 °F 29.90 in SSW 25.0 mph 25.0 mph 97 % 0.00 in 0.00 W/m2
21:16 51.2 °F 50.4 °F 29.90 in WSW 16.0 mph 16.0 mph 97 % 0.00 in 0.00 W/m2
21:21 51.1 °F 50.0 °F 29.90 in SSW 18.0 mph 20.0 mph 96 % 0.00 in 0.00 W/m2
21:26 51.1 °F 50.3 °F 29.90 in SW 16.0 mph 16.0 mph 97 % 0.00 in 0.00 W/m2
21:31 51.1 °F 50.3 °F 29.90 in South 22.0 mph 24.0 mph 97 % 0.07 in 0.00 W/m2
21:36 51.0 °F 50.2 °F 29.90 in WSW 6.0 mph 6.0 mph 97 % 0.20 in 0.00 W/m2
21:41 51.0 °F 50.2 °F 29.90 in SSW 21.0 mph 21.0 mph 97 % 0.12 in 0.00 W/m2
21:46 51.0 °F 50.2 °F 29.89 in WSW 18.0 mph 20.0 mph 97 % 0.13 in 0.00 W/m2
21:51 51.0 °F 50.2 °F 29.89 in SW 10.0 mph 21.0 mph 97 % 0.12 in 0.00 W/m2
21:56 50.9 °F 50.1 °F 29.89 in SSW 11.0 mph 20.0 mph 97 % 0.43 in 0.00 W/m2
22:01 50.9 °F 50.1 °F 29.90 in WSW 21.0 mph 21.0 mph 97 % 0.56 in 0.00 W/m2
22:06 50.9 °F 50.1 °F 29.91 in SW 11.0 mph 21.0 mph 97 % 0.21 in 0.00 W/m2
22:11 51.0 °F 50.2 °F 29.91 in SSE 2.0 mph 4.0 mph 97 % 0.14 in 0.00 W/m2
22:16 51.0 °F 50.2 °F 29.91 in SSW 11.0 mph 23.0 mph 97 % 0.07 in 0.00 W/m2
22:21 51.0 °F 50.2 °F 29.91 in West 27.0 mph 43.0 mph 97 % 0.05 in 0.00 W/m2
22:26 50.8 °F 50.0 °F 29.91 in SW 16.0 mph 20.0 mph 97 % 0.00 in 0.00 W/m2
22:32 50.6 °F 49.8 °F 29.91 in SSW 24.0 mph 32.0 mph 97 % 0.00 in 0.00 W/m2
22:37 50.5 °F 49.7 °F 29.91 in WSW 9.0 mph 19.0 mph 97 % 0.00 in 0.00 W/m2
22:42 50.3 °F 49.2 °F 29.91 in SW 14.0 mph 20.0 mph 96 % 0.00 in 0.00 W/m2
22:47 50.2 °F 49.4 °F 29.91 in SW 8.0 mph 17.0 mph 97 % 0.00 in 0.00 W/m2
22:52 50.1 °F 49.3 °F 29.91 in West 7.0 mph 13.0 mph 97 % 0.00 in 0.00 W/m2
22:57 50.0 °F 49.2 °F 29.91 in SW 21.0 mph 21.0 mph 97 % 0.00 in 0.00 W/m2
23:02 49.9 °F 48.8 °F 29.91 in SW 12.0 mph 14.0 mph 96 % 0.00 in 0.00 W/m2
23:07 49.8 °F 48.7 °F 29.91 in NW 17.0 mph 23.0 mph 96 % 0.00 in 0.00 W/m2
23:12 49.6 °F 48.8 °F 29.91 in WSW 11.0 mph 11.0 mph 97 % 0.00 in 0.00 W/m2
23:17 49.5 °F 48.7 °F 29.92 in SW 18.0 mph 28.0 mph 97 % 0.00 in 0.00 W/m2
23:22 49.5 °F 48.7 °F 29.92 in SW 3.0 mph 14.0 mph 97 % 0.00 in 0.00 W/m2
23:27 49.5 °F 48.7 °F 29.92 in SSW 15.0 mph 19.0 mph 97 % 0.00 in 0.00 W/m2
23:32 49.5 °F 48.7 °F 29.92 in WSW 6.0 mph 7.0 mph 97 % 0.00 in 0.00 W/m2
23:37 49.5 °F 48.7 °F 29.92 in WSW 6.0 mph 18.0 mph 97 % 0.00 in 0.00 W/m2
23:42 49.5 °F 48.7 °F 29.92 in South 18.0 mph 24.0 mph 97 % 0.00 in 0.00 W/m2
23:47 49.5 °F 48.7 °F 29.92 in WSW 9.0 mph 20.0 mph 97 % 0.00 in 0.00 W/m2
23:52 49.5 °F 48.7 °F 29.92 in SW 9.0 mph 9.0 mph 97 % 0.00 in 0.00 W/m2
23:57 49.4 °F 48.6 °F 29.93 in SW 5.0 mph 15.0 mph 97 % 0.00 in 0.00 W/m2
Juneau County Weather
Compliments of Weather Underground - 4.5 mb
 WU-history PHP script courtesy of   Juneau County Weather.
powered by Cumulus v1.9.3 (1059)
Ambient Weather VWS v14.00
Top Contact Website Map Copyright © 2007 - 2018 Foresthillweather.com Never base important decisions on this or any weather information obtained from the Internet